Time;durP1;ratioP1;P1;durP2;ratioP2;P2;SDS_P1;SDS_P2;PMS_P1;PMS_P2;Temp;Humidity;BMP_temperature;BMP_pressure;BME280_temperature;BME280_humidity;BME280_pressure;Samples;Min_cycle;Max_cycle;Signal;HPM_P1;HPM_P2
2022/03/26 00:01:49;;;;;;;30.33;14.38;;;2.70;99.90;;;;;;5038225;28;20041;-72
2022/03/26 00:04:17;;;;;;;34.95;14.43;;;2.70;99.90;;;;;;5037967;28;20491;-72
2022/03/26 00:06:45;;;;;;;32.85;14.73;;;2.70;99.90;;;;;;5020455;28;20120;-73
2022/03/26 00:09:12;;;;;;;38.28;14.85;;;2.60;99.90;;;;;;5038422;28;20026;-72
2022/03/26 00:11:39;;;;;;;34.83;15.55;;;2.60;99.90;;;;;;5037765;28;20108;-73
2022/03/26 00:14:07;;;;;;;32.72;13.98;;;2.60;99.90;;;;;;5020360;28;20029;-72
2022/03/26 00:16:35;;;;;;;32.15;11.80;;;2.60;99.90;;;;;;5037791;28;20584;-72
2022/03/26 00:19:03;;;;;;;26.95;11.55;;;2.50;99.90;;;;;;5037671;28;20447;-72
2022/03/26 00:21:32;;;;;;;25.42;11.60;;;2.40;99.90;;;;;;5037740;28;20048;-72
2022/03/26 00:23:59;;;;;;;33.78;13.70;;;2.30;99.90;;;;;;5037889;28;20317;-72
2022/03/26 00:26:26;;;;;;;32.42;12.55;;;2.30;99.90;;;;;;5020105;28;20041;-72
2022/03/26 00:28:54;;;;;;;29.73;12.43;;;2.20;99.90;;;;;;5037668;28;20018;-72
2022/03/26 00:31:21;;;;;;;32.80;12.82;;;2.20;99.90;;;;;;5037446;28;20032;-72
2022/03/26 00:33:49;;;;;;;33.08;13.85;;;2.20;99.90;;;;;;5036723;28;20060;-72
2022/03/26 00:36:17;;;;;;;40.42;14.35;;;2.20;99.90;;;;;;5038019;28;20084;-72
2022/03/26 00:38:45;;;;;;;34.05;14.23;;;2.20;99.90;;;;;;5037448;28;20026;-72
2022/03/26 00:41:12;;;;;;;34.85;12.65;;;2.20;99.90;;;;;;5037690;28;20340;-72
2022/03/26 00:43:39;;;;;;;33.83;12.75;;;2.20;99.90;;;;;;5038124;28;20017;-72
2022/03/26 00:46:07;;;;;;;31.23;12.77;;;2.30;99.90;;;;;;5037939;28;20021;-72
2022/03/26 00:48:34;;;;;;;31.17;14.00;;;2.20;99.90;;;;;;5037349;28;20029;-72
2022/03/26 00:51:02;;;;;;;31.40;13.00;;;2.30;99.90;;;;;;5037327;28;20033;-73
2022/03/26 00:53:29;;;;;;;31.92;13.60;;;2.30;99.90;;;;;;5036642;28;20029;-72
2022/03/26 00:55:57;;;;;;;31.52;11.95;;;2.30;99.90;;;;;;5037245;28;20025;-72
2022/03/26 00:58:25;;;;;;;32.92;13.23;;;2.30;99.90;;;;;;5037715;28;20075;-72
2022/03/26 01:00:53;;;;;;;26.35;11.30;;;2.20;99.90;;;;;;5037840;28;20416;-72
2022/03/26 01:03:20;;;;;;;27.23;10.52;;;2.20;99.90;;;;;;5019588;28;20029;-72
2022/03/26 01:05:48;;;;;;;24.88;10.98;;;2.10;99.90;;;;;;5037425;28;20026;-72
2022/03/26 01:08:15;;;;;;;29.35;11.88;;;2.00;99.90;;;;;;5037213;28;20060;-72
2022/03/26 01:10:44;;;;;;;27.02;11.73;;;2.00;99.90;;;;;;5037713;28;20030;-72
2022/03/26 01:13:12;;;;;;;32.33;13.88;;;1.90;99.90;;;;;;5037406;28;20317;-72
2022/03/26 01:15:39;;;;;;;38.97;13.10;;;1.90;99.90;;;;;;5019800;28;20478;-72
2022/03/26 01:18:08;;;;;;;28.17;11.60;;;1.90;99.90;;;;;;5019466;28;20029;-72
2022/03/26 01:20:35;;;;;;;34.85;13.38;;;1.90;99.90;;;;;;5019566;28;20335;-72
2022/03/26 01:23:03;;;;;;;29.98;11.82;;;1.80;99.90;;;;;;5037576;28;20022;-72
2022/03/26 01:25:33;;;;;;;31.65;12.70;;;1.90;99.90;;;;;;5037296;28;20025;-72
2022/03/26 01:28:00;;;;;;;28.13;11.27;;;1.90;99.90;;;;;;5037069;28;20033;-72
2022/03/26 01:30:28;;;;;;;30.02;11.82;;;1.80;99.90;;;;;;5037097;28;20021;-72
2022/03/26 01:32:55;;;;;;;35.55;12.77;;;1.80;99.90;;;;;;5037126;28;20487;-72
2022/03/26 01:35:22;;;;;;;30.77;12.02;;;1.80;99.90;;;;;;5035914;28;20045;-72
2022/03/26 01:37:49;;;;;;;28.58;11.15;;;1.80;99.90;;;;;;5036736;28;20369;-73
2022/03/26 01:40:17;;;;;;;28.67;12.88;;;1.80;99.90;;;;;;5019526;28;20053;-72
2022/03/26 01:42:44;;;;;;;33.05;12.07;;;1.80;99.90;;;;;;5019553;28;20369;-72
2022/03/26 01:45:16;;;;;;;33.92;13.02;;;1.70;99.90;;;;;;5039937;28;20026;-72
2022/03/26 01:47:44;;;;;;;29.90;13.07;;;1.70;99.90;;;;;;5041009;28;20048;-72
2022/03/26 01:50:12;;;;;;;29.48;11.48;;;1.60;99.90;;;;;;5040678;28;20021;-72
2022/03/26 01:52:40;;;;;;;25.40;11.05;;;1.60;99.90;;;;;;5041027;28;20018;-73
2022/03/26 01:55:08;;;;;;;26.60;11.80;;;1.60;99.90;;;;;;5040452;28;20075;-72
2022/03/26 01:57:36;;;;;;;30.42;11.93;;;1.50;99.90;;;;;;5040259;28;20029;-72
2022/03/26 02:00:05;;;;;;;35.80;13.35;;;1.50;99.90;;;;;;5040414;28;20049;-72
2022/03/26 02:02:33;;;;;;;32.83;11.27;;;1.50;99.90;;;;;;5022655;28;20029;-72
2022/03/26 02:05:00;;;;;;;29.05;11.73;;;1.50;99.90;;;;;;5040822;28;20017;-72
2022/03/26 02:07:28;;;;;;;27.60;11.25;;;1.40;99.90;;;;;;5040751;28;20070;-72
2022/03/26 02:09:56;;;;;;;34.78;12.05;;;1.40;99.90;;;;;;5040366;28;20159;-72
2022/03/26 02:12:31;;;;;;;28.48;11.50;;;1.40;99.90;;;;;;5040077;28;20022;-72
2022/03/26 02:14:59;;;;;;;31.52;11.32;;;1.40;99.90;;;;;;5040664;28;20030;-73
2022/03/26 02:17:26;;;;;;;26.60;11.38;;;1.30;99.90;;;;;;5039742;28;20017;-72
2022/03/26 02:20:02;;;;;;;32.55;11.05;;;1.30;99.90;;;;;;5039692;28;20029;-72
2022/03/26 02:22:29;;;;;;;31.95;10.88;;;1.30;99.90;;;;;;5040232;28;20105;-72
2022/03/26 02:24:57;;;;;;;27.02;10.98;;;1.30;99.90;;;;;;5039931;28;20029;-72
2022/03/26 02:27:26;;;;;;;33.90;11.27;;;1.30;99.90;;;;;;5039850;28;20022;-73
2022/03/26 02:29:53;;;;;;;27.05;11.57;;;1.30;99.90;;;;;;5022373;28;20057;-72
2022/03/26 02:32:22;;;;;;;33.38;10.32;;;1.30;99.90;;;;;;5040183;28;20030;-72
2022/03/26 02:34:50;;;;;;;30.30;10.48;;;1.20;99.90;;;;;;5039456;28;20056;-72
2022/03/26 02:37:17;;;;;;;28.77;11.07;;;1.20;99.90;;;;;;5039644;28;20025;-72
2022/03/26 02:39:45;;;;;;;24.38;10.95;;;1.20;99.90;;;;;;5021974;28;20040;-72
2022/03/26 02:42:13;;;;;;;30.40;11.25;;;1.20;99.90;;;;;;5021960;28;20036;-72
2022/03/26 02:44:41;;;;;;;30.23;11.15;;;1.10;99.90;;;;;;5021928;28;20029;-72
2022/03/26 02:47:11;;;;;;;30.55;11.25;;;1.10;99.90;;;;;;5039571;28;20025;-72
2022/03/26 02:49:39;;;;;;;29.85;11.52;;;1.10;99.90;;;;;;5040007;28;20044;-72
2022/03/26 02:52:07;;;;;;;27.08;10.70;;;1.10;99.90;;;;;;5039679;28;20022;-72
2022/03/26 02:54:35;;;;;;;32.65;11.90;;;1.00;99.90;;;;;;5021721;28;20036;-72
2022/03/26 02:57:03;;;;;;;33.20;12.38;;;1.00;99.90;;;;;;5020929;28;20037;-72
2022/03/26 02:59:30;;;;;;;29.17;10.43;;;1.00;99.90;;;;;;5039205;28;20079;-72
2022/03/26 03:01:57;;;;;;;25.98;10.95;;;1.00;99.90;;;;;;5039344;28;20057;-72
2022/03/26 03:04:24;;;;;;;32.67;11.65;;;1.00;99.90;;;;;;5021627;28;20040;-72
2022/03/26 03:06:53;;;;;;;24.88;10.25;;;0.90;99.90;;;;;;5039069;28;20029;-72
2022/03/26 03:09:21;;;;;;;30.80;11.32;;;0.90;99.90;;;;;;5039213;28;20052;-72
2022/03/26 03:11:48;;;;;;;26.45;10.45;;;0.90;99.90;;;;;;5021435;28;20034;-72
2022/03/26 03:14:16;;;;;;;30.02;10.50;;;0.80;99.90;;;;;;5038988;28;20022;-72
2022/03/26 03:16:43;;;;;;;30.77;12.38;;;0.80;99.90;;;;;;5039076;28;20021;-72
2022/03/26 03:19:10;;;;;;;27.02;10.90;;;0.80;99.90;;;;;;5039432;28;20025;-72
2022/03/26 03:21:38;;;;;;;27.40;10.95;;;0.90;99.90;;;;;;5039339;28;20097;-72
2022/03/26 03:24:06;;;;;;;28.35;10.00;;;0.90;99.90;;;;;;5038849;28;20014;-72
2022/03/26 03:26:33;;;;;;;25.15;10.98;;;0.90;99.90;;;;;;5038608;28;20018;-72
2022/03/26 03:29:00;;;;;;;27.42;12.10;;;0.90;99.90;;;;;;5039072;28;20078;-72
2022/03/26 03:31:28;;;;;;;27.70;10.68;;;0.90;99.90;;;;;;5038438;28;20033;-72
2022/03/26 03:33:56;;;;;;;24.35;9.75;;;0.90;99.90;;;;;;5021431;28;20038;-72
2022/03/26 03:36:23;;;;;;;27.25;11.63;;;0.80;99.90;;;;;;5038470;28;20057;-72
2022/03/26 03:38:50;;;;;;;29.25;9.80;;;0.80;99.90;;;;;;5020992;28;20040;-72
2022/03/26 03:41:18;;;;;;;31.50;12.30;;;0.80;99.90;;;;;;5038953;28;20093;-72
2022/03/26 03:43:45;;;;;;;28.83;9.73;;;0.80;99.90;;;;;;5020153;28;20017;-73
2022/03/26 03:46:15;;;;;;;26.88;11.68;;;0.80;99.90;;;;;;5038850;28;20014;-72
2022/03/26 03:48:42;;;;;;;29.95;10.65;;;0.70;99.90;;;;;;5038262;28;20030;-72
2022/03/26 03:51:09;;;;;;;26.02;10.63;;;0.70;99.90;;;;;;5038538;28;20452;-73
2022/03/26 03:53:37;;;;;;;23.88;10.18;;;0.70;99.90;;;;;;5038787;28;20029;-72
2022/03/26 03:56:05;;;;;;;22.85;10.07;;;0.70;99.90;;;;;;5020655;28;20025;-72
2022/03/26 03:58:32;;;;;;;25.92;10.48;;;0.70;99.90;;;;;;5038581;28;20031;-72
2022/03/26 04:00:59;;;;;;;24.42;9.18;;;0.60;99.90;;;;;;5038272;28;20318;-72
2022/03/26 04:03:30;;;;;;;28.13;10.98;;;0.60;99.90;;;;;;5037964;28;20041;-72
2022/03/26 04:06:01;;;;;;;27.52;10.07;;;0.60;99.90;;;;;;5038300;28;20028;-72
2022/03/26 04:08:28;;;;;;;28.75;10.48;;;0.50;99.90;;;;;;5037867;28;20449;-72
2022/03/26 04:10:56;;;;;;;24.25;10.52;;;0.50;99.90;;;;;;5037947;28;20026;-72
2022/03/26 04:13:23;;;;;;;26.73;12.48;;;0.40;99.90;;;;;;5019670;28;20440;-72
2022/03/26 04:15:51;;;;;;;26.08;10.70;;;0.40;99.90;;;;;;5038545;28;20029;-72
2022/03/26 04:18:18;;;;;;;33.35;11.30;;;0.40;99.90;;;;;;5037761;28;20021;-72
2022/03/26 04:20:46;;;;;;;31.77;12.18;;;0.40;99.90;;;;;;5038365;28;20037;-72
2022/03/26 04:23:14;;;;;;;29.80;10.55;;;0.40;99.90;;;;;;5037619;28;20017;-72
2022/03/26 04:25:41;;;;;;;33.33;12.05;;;0.40;99.90;;;;;;5037669;28;20021;-72
2022/03/26 04:28:08;;;;;;;35.20;11.02;;;0.40;99.90;;;;;;5037625;28;20022;-72
2022/03/26 04:30:36;;;;;;;32.17;11.35;;;0.40;99.90;;;;;;5038160;28;20429;-72
2022/03/26 04:33:03;;;;;;;29.50;11.32;;;0.40;99.90;;;;;;5037498;28;20021;-72
2022/03/26 04:35:31;;;;;;;25.55;10.00;;;0.40;99.90;;;;;;5037262;28;20041;-72
2022/03/26 04:37:58;;;;;;;36.13;10.85;;;0.40;99.90;;;;;;5037734;28;20036;-72
2022/03/26 04:40:27;;;;;;;26.70;10.05;;;0.30;99.90;;;;;;5038007;28;20028;-72
2022/03/26 04:42:54;;;;;;;25.92;11.00;;;0.20;99.90;;;;;;5019951;28;20025;-72
2022/03/26 04:45:26;;;;;;;29.38;10.77;;;0.20;99.90;;;;;;5037592;28;20024;-72
2022/03/26 04:47:53;;;;;;;24.77;10.40;;;0.20;99.90;;;;;;5037630;28;20022;-73
2022/03/26 04:50:21;;;;;;;32.28;12.15;;;0.20;99.90;;;;;;5037400;28;20104;-72
2022/03/26 04:52:49;;;;;;;31.98;12.45;;;0.20;99.90;;;;;;5037349;28;20029;-72
2022/03/26 04:55:18;;;;;;;28.02;11.07;;;0.20;99.90;;;;;;5037549;28;20437;-72
2022/03/26 04:57:48;;;;;;;26.65;10.23;;;0.20;99.90;;;;;;5037281;28;20372;-72
2022/03/26 05:00:17;;;;;;;29.77;11.25;;;0.20;99.90;;;;;;5037486;28;20075;-72
2022/03/26 05:02:45;;;;;;;30.55;12.88;;;0.10;99.90;;;;;;5037735;28;20024;-72
2022/03/26 05:05:14;;;;;;;32.38;11.40;;;0.10;99.90;;;;;;5037664;28;20113;-72
2022/03/26 05:07:46;;;;;;;28.77;11.63;;;0.10;99.90;;;;;;5037021;28;20025;-70
2022/03/26 05:10:19;;;;;;;34.70;11.10;;;0.00;99.90;;;;;;5036677;28;20436;-73
2022/03/26 05:12:49;;;;;;;34.40;12.10;;;0.00;99.90;;;;;;5037186;28;20032;-72
2022/03/26 05:15:18;;;;;;;33.90;12.38;;;0.00;99.90;;;;;;5037561;28;20029;-73
2022/03/26 05:17:45;;;;;;;42.80;13.63;;;0.00;99.90;;;;;;5019511;28;20448;-72
2022/03/26 05:20:12;;;;;;;44.25;13.43;;;0.10;99.90;;;;;;5040551;28;20026;-72
2022/03/26 05:22:41;;;;;;;38.55;13.00;;;0.10;99.90;;;;;;5041581;28;20072;-73
2022/03/26 05:25:09;;;;;;;38.88;13.18;;;0.20;99.90;;;;;;5041660;28;20045;-72
2022/03/26 05:27:37;;;;;;;29.27;12.15;;;0.20;99.90;;;;;;5023330;28;20022;-72
2022/03/26 05:30:06;;;;;;;29.73;10.65;;;0.20;99.90;;;;;;5023417;28;20378;-73
2022/03/26 05:32:34;;;;;;;32.05;11.90;;;0.20;99.90;;;;;;5040812;28;20025;-72
2022/03/26 05:35:01;;;;;;;34.25;11.38;;;0.10;99.90;;;;;;5040948;28;20083;-72
2022/03/26 05:37:30;;;;;;;33.05;11.23;;;0.10;99.90;;;;;;5040763;28;20334;-72
2022/03/26 05:39:57;;;;;;;30.27;11.63;;;0.10;99.90;;;;;;5041009;28;20345;-72
2022/03/26 05:42:25;;;;;;;33.85;11.57;;;0.10;99.90;;;;;;5040874;28;20124;-72
2022/03/26 05:44:53;;;;;;;35.45;12.52;;;0.10;99.90;;;;;;5041344;28;20022;-72
2022/03/26 05:47:20;;;;;;;30.80;12.10;;;0.10;99.90;;;;;;5040553;28;20436;-72
2022/03/26 05:49:47;;;;;;;38.45;13.40;;;0.20;99.90;;;;;;5040604;28;20068;-72
2022/03/26 05:52:15;;;;;;;43.53;14.40;;;0.30;99.90;;;;;;5040265;28;20025;-74
2022/03/26 05:54:42;;;;;;;35.53;12.57;;;0.40;99.90;;;;;;5040610;28;20032;-71
2022/03/26 05:57:09;;;;;;;46.67;15.55;;;0.50;99.90;;;;;;5023265;28;20349;-71
2022/03/26 05:59:37;;;;;;;30.38;12.05;;;0.50;99.90;;;;;;5040273;28;20029;-71
2022/03/26 06:02:04;;;;;;;33.30;12.35;;;0.60;99.90;;;;;;5022669;28;20421;-71
2022/03/26 06:04:33;;;;;;;35.00;12.07;;;0.60;99.90;;;;;;5040737;28;20317;-71
2022/03/26 06:07:00;;;;;;;33.35;13.57;;;0.60;99.90;;;;;;5040390;28;20028;-71
2022/03/26 06:09:27;;;;;;;34.15;12.82;;;0.70;99.90;;;;;;5022604;28;20464;-71
2022/03/26 06:11:55;;;;;;;35.20;14.02;;;0.70;99.90;;;;;;5040626;28;20113;-71
2022/03/26 06:14:23;;;;;;;46.72;16.85;;;0.80;99.90;;;;;;5040261;28;20051;-71
2022/03/26 06:16:50;;;;;;;56.60;16.35;;;0.90;99.90;;;;;;5040483;28;20105;-71
2022/03/26 06:19:21;;;;;;;33.45;13.38;;;0.90;99.90;;;;;;5039984;28;20048;-73
2022/03/26 06:21:48;;;;;;;40.78;16.13;;;1.00;99.90;;;;;;5040222;28;20017;-72
2022/03/26 06:24:16;;;;;;;41.78;15.82;;;1.10;99.90;;;;;;5040657;28;20056;-71
2022/03/26 06:26:44;;;;;;;48.60;17.63;;;1.20;99.90;;;;;;5040677;28;20049;-72
2022/03/26 06:29:15;;;;;;;45.65;18.50;;;1.30;99.90;;;;;;5040407;28;20072;-72
2022/03/26 06:31:42;;;;;;;41.13;16.25;;;1.40;99.90;;;;;;5021921;28;20071;-69
2022/03/26 06:34:11;;;;;;;41.10;16.38;;;1.50;99.90;;;;;;5038927;28;20104;-68
2022/03/26 06:36:39;;;;;;;56.35;16.02;;;1.60;99.90;;;;;;5039665;28;20120;-68
2022/03/26 06:39:07;;;;;;;44.80;17.10;;;1.70;99.90;;;;;;5039615;28;20040;-69
2022/03/26 06:41:39;;;;;;;45.42;16.85;;;1.80;99.90;;;;;;5039884;28;20024;-68
2022/03/26 06:44:08;;;;;;;42.67;16.80;;;1.90;99.90;;;;;;5040262;28;20092;-68
2022/03/26 06:46:36;;;;;;;43.10;16.85;;;2.00;99.90;;;;;;5039522;28;20029;-68
2022/03/26 06:49:04;;;;;;;47.97;17.40;;;2.10;99.90;;;;;;5039533;28;20025;-68
2022/03/26 06:51:32;;;;;;;46.20;16.85;;;2.20;99.90;;;;;;5039443;28;20340;-68
2022/03/26 06:53:59;;;;;;;48.13;17.20;;;2.30;99.90;;;;;;5040123;28;20119;-71
2022/03/26 06:56:27;;;;;;;44.60;16.70;;;2.40;99.90;;;;;;5039827;28;20044;-71
2022/03/26 06:58:55;;;;;;;51.33;17.38;;;2.50;99.90;;;;;;5039741;28;20029;-72
2022/03/26 07:01:22;;;;;;;58.15;18.48;;;2.60;99.90;;;;;;5039187;28;20388;-72
2022/03/26 07:03:49;;;;;;;49.60;17.65;;;2.80;99.90;;;;;;5039327;28;20018;-72
2022/03/26 07:06:19;;;;;;;60.70;18.85;;;2.90;99.90;;;;;;5021543;28;20365;-68
2022/03/26 07:08:47;;;;;;;51.05;20.15;;;3.00;99.90;;;;;;5039071;28;20021;-68
2022/03/26 07:11:15;;;;;;;62.15;20.23;;;3.20;99.90;;;;;;5038936;28;20032;-67
2022/03/26 07:13:42;;;;;;;61.55;22.42;;;3.30;99.90;;;;;;5039710;28;20105;-67
2022/03/26 07:16:10;;;;;;;61.17;21.88;;;3.40;99.90;;;;;;5038786;28;20056;-67
2022/03/26 07:18:37;;;;;;;56.08;19.90;;;3.50;99.90;;;;;;5038704;28;20057;-67
2022/03/26 07:21:05;;;;;;;57.50;18.58;;;3.60;99.90;;;;;;5038822;28;20050;-70
2022/03/26 07:23:32;;;;;;;68.00;19.88;;;3.70;99.90;;;;;;5038049;28;20330;-74
2022/03/26 07:25:59;;;;;;;50.17;20.88;;;3.80;99.90;;;;;;5038748;28;20021;-66
2022/03/26 07:28:27;;;;;;;61.20;23.58;;;4.00;99.90;;;;;;5039248;28;20017;-67
2022/03/26 07:30:54;;;;;;;54.38;20.65;;;4.10;99.90;;;;;;5039182;28;20075;-67
2022/03/26 07:33:22;;;;;;;60.30;22.42;;;4.30;99.90;;;;;;5038545;28;20041;-67
2022/03/26 07:35:49;;;;;;;56.70;21.35;;;4.40;99.90;;;;;;5038438;28;20041;-65
2022/03/26 07:38:17;;;;;;;55.35;19.77;;;4.50;99.90;;;;;;5038965;28;20032;-67
2022/03/26 07:40:44;;;;;;;46.75;18.35;;;4.70;99.90;;;;;;5039198;28;20026;-70
2022/03/26 07:43:12;;;;;;;43.75;19.42;;;4.90;99.90;;;;;;5038268;28;20022;-70
2022/03/26 07:45:39;;;;;;;58.03;21.05;;;5.00;99.90;;;;;;5039034;28;20445;-72
2022/03/26 07:48:07;;;;;;;47.25;20.15;;;5.20;99.90;;;;;;5020759;28;20026;-72
2022/03/26 07:50:35;;;;;;;53.42;21.15;;;5.30;99.90;;;;;;5038822;28;20030;-72
2022/03/26 07:53:03;;;;;;;49.25;19.70;;;5.50;99.90;;;;;;5038298;28;20024;-72
2022/03/26 07:55:30;;;;;;;43.08;18.08;;;5.60;99.90;;;;;;5020610;28;20021;-72
2022/03/26 07:57:58;;;;;;;54.08;20.10;;;5.80;99.90;;;;;;5038059;28;20032;-71
2022/03/26 08:00:25;;;;;;;47.90;19.63;;;5.90;99.90;;;;;;5020739;28;20306;-72
2022/03/26 08:02:52;;;;;;;46.75;19.23;;;6.00;99.90;;;;;;5038320;28;20105;-72
2022/03/26 08:05:21;;;;;;;50.28;19.48;;;6.20;99.90;;;;;;5038344;28;20432;-72
2022/03/26 08:07:48;;;;;;;54.22;19.05;;;6.30;99.90;;;;;;5038347;28;20321;-72
2022/03/26 08:10:17;;;;;;;54.50;20.05;;;6.50;99.90;;;;;;5038064;28;20117;-72
2022/03/26 08:12:44;;;;;;;52.88;21.02;;;6.60;99.90;;;;;;5037977;28;20353;-72
2022/03/26 08:15:12;;;;;;;53.67;19.65;;;6.80;99.90;;;;;;5037931;28;20088;-72
2022/03/26 08:17:40;;;;;;;51.53;19.95;;;7.00;99.90;;;;;;5038057;28;20429;-72
2022/03/26 08:20:07;;;;;;;45.40;19.92;;;7.10;99.90;;;;;;5020365;28;20477;-72
2022/03/26 08:22:35;;;;;;;47.97;18.92;;;7.20;99.90;;;;;;5021452;28;20034;-72
2022/03/26 08:25:02;;;;;;;44.80;18.60;;;7.40;99.90;;;;;;5037786;28;20056;-72
2022/03/26 08:27:30;;;;;;;45.70;17.60;;;7.50;99.90;;;;;;5037958;28;20402;-72
2022/03/26 08:29:57;;;;;;;45.45;17.77;;;7.70;99.90;;;;;;5037886;28;20021;-72
2022/03/26 08:32:25;;;;;;;43.50;17.40;;;7.90;99.90;;;;;;5037502;28;20026;-72
2022/03/26 08:34:52;;;;;;;40.10;15.50;;;8.10;99.90;;;;;;5017019;28;20460;-72
2022/03/26 08:37:23;;;;;;;39.10;14.02;;;8.30;99.90;;;;;;5016720;28;20057;-72
2022/03/26 08:39:50;;;;;;;29.35;12.90;;;8.60;99.90;;;;;;5016978;28;20125;-72
2022/03/26 08:42:18;;;;;;;37.05;14.40;;;9.00;99.90;;;;;;5017682;28;20057;-72
2022/03/26 08:44:45;;;;;;;29.88;14.65;;;9.20;99.90;;;;;;5017630;28;20105;-72
2022/03/26 08:47:13;;;;;;;35.00;13.38;;;9.50;99.90;;;;;;5018046;28;20025;-72
2022/03/26 08:49:44;;;;;;;30.33;13.95;;;9.80;99.90;;;;;;5018179;28;20034;-72
2022/03/26 08:52:12;;;;;;;28.40;13.85;;;10.00;99.90;;;;;;5017717;28;20105;-72
2022/03/26 08:54:39;;;;;;;37.03;13.25;;;10.30;99.90;;;;;;5015838;28;20076;-72
2022/03/26 08:57:08;;;;;;;31.27;14.15;;;10.60;99.90;;;;;;5018108;28;20106;-72
2022/03/26 08:59:36;;;;;;;36.20;15.32;;;10.80;99.90;;;;;;5017655;28;20422;-72
2022/03/26 09:02:04;;;;;;;37.28;14.40;;;10.90;99.90;;;;;;5018583;28;20028;-72
2022/03/26 09:04:31;;;;;;;33.55;14.40;;;11.10;99.90;;;;;;5017771;28;20022;-72
2022/03/26 09:06:58;;;;;;;33.40;12.70;;;11.30;99.90;;;;;;5016652;28;20026;-72
2022/03/26 09:09:26;;;;;;;31.40;13.93;;;11.50;99.90;;;;;;5018852;28;20018;-72
2022/03/26 09:11:53;;;;;;;27.50;14.20;;;11.60;99.90;;;;;;5018089;28;20035;-70
2022/03/26 09:14:20;;;;;;;33.63;13.85;;;11.60;99.90;;;;;;5017862;28;20040;-70
2022/03/26 09:16:48;;;;;;;35.38;14.65;;;11.70;99.90;;;;;;5017797;28;20026;-73
2022/03/26 09:19:15;;;;;;;28.85;13.13;;;11.80;99.90;;;;;;5017446;28;20026;-75
2022/03/26 09:21:44;;;;;;;36.15;13.80;;;11.90;99.90;;;;;;5016654;28;20131;-72
2022/03/26 09:24:15;;;;;;;35.45;13.55;;;12.00;99.90;;;;;;5017263;28;20025;-72
2022/03/26 09:26:44;;;;;;;30.40;13.70;;;12.10;99.90;;;;;;5018368;28;20403;-74
2022/03/26 09:29:11;;;;;;;28.27;11.60;;;12.20;99.90;;;;;;5018869;28;20109;-71
2022/03/26 09:31:39;;;;;;;26.08;10.80;;;12.20;99.90;;;;;;5017918;28;20021;-71
2022/03/26 09:34:06;;;;;;;30.17;11.98;;;12.20;99.90;;;;;;5019183;28;20021;-72
2022/03/26 09:36:34;;;;;;;26.30;11.85;;;12.20;99.90;;;;;;5037265;28;20034;-73
2022/03/26 09:39:01;;;;;;;27.13;12.73;;;12.30;99.90;;;;;;5037141;28;20037;-72
2022/03/26 09:41:31;;;;;;;18.17;9.63;;;12.40;99.90;;;;;;5019744;28;20026;-70
2022/03/26 09:43:59;;;;;;;24.77;10.70;;;12.40;99.90;;;;;;5037814;28;20037;-73
2022/03/26 09:46:28;;;;;;;25.33;11.82;;;12.40;99.90;;;;;;5037844;28;20096;-70
2022/03/26 09:48:56;;;;;;;16.60;8.60;;;12.40;99.90;;;;;;5036824;28;20029;-70
2022/03/26 09:51:24;;;;;;;12.93;6.03;;;12.40;99.90;;;;;;5036935;28;20025;-70
2022/03/26 09:53:54;;;;;;;15.20;6.82;;;12.30;99.90;;;;;;5036948;28;20017;-70
2022/03/26 09:56:22;;;;;;;8.35;4.68;;;12.30;99.90;;;;;;5037268;28;20025;-71
2022/03/26 09:58:52;;;;;;;14.50;5.75;;;12.40;99.90;;;;;;5036627;28;20034;-71
2022/03/26 10:01:21;;;;;;;13.65;5.68;;;12.40;99.90;;;;;;5036685;28;20014;-72
2022/03/26 10:04:10;;;;;;;12.27;5.75;;;12.40;99.90;;;;;;5019152;28;20038;-71
2022/03/26 10:06:47;;;;;;;8.15;4.82;;;12.50;99.90;;;;;;5040454;28;20346;-70
2022/03/26 10:09:33;;;;;;;11.65;5.80;;;12.50;99.90;;;;;;5040540;28;20076;-71
2022/03/26 10:12:10;;;;;;;13.73;5.97;;;12.50;99.90;;;;;;5040421;28;20427;-69
2022/03/26 10:14:51;;;;;;;12.80;6.15;;;12.60;99.90;;;;;;5040486;28;20037;-71
2022/03/26 10:17:31;;;;;;;11.45;5.20;;;12.60;99.90;;;;;;5040292;28;20030;-72
2022/03/26 10:20:08;;;;;;;8.02;4.45;;;12.70;99.90;;;;;;5039908;28;20325;-69
2022/03/26 10:22:41;;;;;;;13.00;5.20;;;12.70;99.10;;;;;;5040517;28;20022;-71
2022/03/26 10:25:16;;;;;;;11.48;4.78;;;12.80;98.80;;;;;;5040032;28;20032;-71
2022/03/26 10:27:45;;;;;;;11.00;4.80;;;12.90;98.20;;;;;;5022129;28;20032;-68
2022/03/26 10:32:38;;;;;;;7.90;4.30;;;12.90;98.30;;;;;;5039794;28;20113;-71
2022/03/26 10:33:39;;;;;;;10.80;5.20;;;13.00;98.40;;;;;;5038939;28;20430;-70
2022/03/26 10:36:06;;;;;;;10.77;5.43;;;13.00;99.10;;;;;;4989733;28;20046;-72
2022/03/26 10:38:43;;;;;;;13.82;5.32;;;13.00;99.10;;;;;;4999164;28;20027;-70
2022/03/26 10:41:10;;;;;;;14.57;6.40;;;13.00;99.40;;;;;;5000694;28;20015;-70
2022/03/26 10:43:44;;;;;;;11.60;5.30;;;13.10;99.90;;;;;;5000397;28;20027;-72
2022/03/26 10:46:12;;;;;;;12.65;6.50;;;13.10;99.90;;;;;;4998835;28;20023;-71
2022/03/26 10:48:39;;;;;;;13.65;6.28;;;13.20;99.90;;;;;;4999704;28;20097;-69
2022/03/26 10:51:13;;;;;;;12.05;6.60;;;13.20;99.90;;;;;;4999065;28;20422;-71
2022/03/26 10:53:49;;;;;;;18.50;7.70;;;13.30;99.90;;;;;;5000534;28;20415;-71
2022/03/26 10:56:17;;;;;;;12.73;7.00;;;13.40;99.90;;;;;;5000460;28;20026;-72
2022/03/26 10:58:45;;;;;;;13.93;7.40;;;13.50;99.90;;;;;;4999895;28;20026;-72
2022/03/26 11:01:12;;;;;;;18.08;7.47;;;13.50;99.90;;;;;;4998859;28;20045;-70
2022/03/26 11:03:40;;;;;;;12.15;6.22;;;13.70;99.90;;;;;;4998891;28;20036;-70
2022/03/26 11:06:15;;;;;;;12.45;7.15;;;13.70;99.90;;;;;;5000368;28;20026;-70
2022/03/26 11:08:48;;;;;;;12.73;6.68;;;13.70;99.90;;;;;;4998729;28;20037;-71
2022/03/26 11:11:15;;;;;;;14.90;7.75;;;13.80;99.90;;;;;;4999692;28;20022;-69
2022/03/26 11:13:49;;;;;;;14.80;6.88;;;13.80;99.90;;;;;;4999692;28;20105;-70
2022/03/26 11:16:45;;;;;;;15.23;7.60;;;13.90;99.90;;;;;;4999175;28;20029;-71
2022/03/26 11:19:49;;;;;;;12.87;6.63;;;14.10;99.90;;;;;;5000190;28;20033;-72
2022/03/26 11:22:42;;;;;;;13.25;6.40;;;14.20;99.90;;;;;;4999528;28;20273;-68
2022/03/26 11:25:28;;;;;;;17.70;7.90;;;14.30;99.50;;;;;;4999682;28;20419;-67
2022/03/26 11:28:05;;;;;;;15.45;7.60;;;14.30;99.10;;;;;;4999971;28;20030;-69
2022/03/26 11:31:08;;;;;;;14.48;7.40;;;14.30;99.40;;;;;;4999133;28;20026;-72
2022/03/26 11:33:37;;;;;;;17.27;7.55;;;14.30;98.00;;;;;;4999517;28;20050;-72
2022/03/26 11:36:08;;;;;;;16.70;7.93;;;14.30;97.80;;;;;;5034027;28;20164;-72
2022/03/26 11:38:36;;;;;;;18.45;8.23;;;14.40;97.80;;;;;;5039059;28;20029;-72
2022/03/26 11:41:05;;;;;;;16.95;8.30;;;14.30;97.90;;;;;;5039073;28;20070;-72
2022/03/26 11:43:46;;;;;;;17.10;8.70;;;14.40;98.00;;;;;;5021049;28;20317;-72
2022/03/26 11:52:26;;;;;;;17.48;8.45;;;14.50;97.20;;;;;;5038586;28;20076;-72
2022/03/26 11:55:14;;;;;;;19.27;8.15;;;14.50;96.70;;;;;;5038918;28;20405;-72
2022/03/26 11:57:41;;;;;;;14.88;7.72;;;14.60;96.80;;;;;;5038706;28;20056;-71
2022/03/26 12:00:21;;;;;;;12.68;7.68;;;14.80;95.20;;;;;;5038579;28;20022;-72
2022/03/26 12:02:53;;;;;;;12.27;8.02;;;15.00;95.30;;;;;;5038176;28;20032;-72
2022/03/26 12:08:18;;;;;;;16.48;7.50;;;15.20;95.50;;;;;;5038300;28;20325;-71
2022/03/26 12:10:47;;;;;;;15.20;8.30;;;15.30;94.30;;;;;;5037847;28;20079;-72
2022/03/26 12:13:23;;;;;;;17.33;8.30;;;15.20;93.80;;;;;;5037917;28;20022;-72
2022/03/26 12:16:02;;;;;;;12.90;6.32;;;15.30;94.60;;;;;;5037757;28;20428;-72
2022/03/26 12:18:39;;;;;;;12.32;7.10;;;15.30;93.20;;;;;;5037633;28;20033;-81
2022/03/26 12:21:31;;;;;;;11.95;6.55;;;15.30;93.10;;;;;;5038034;28;20017;-71
2022/03/26 12:23:59;;;;;;;12.95;7.05;;;15.30;92.90;;;;;;5019080;28;20495;-68
2022/03/26 12:26:26;;;;;;;13.60;7.10;;;15.40;91.40;;;;;;5037879;28;20021;-72
2022/03/26 12:28:53;;;;;;;12.82;7.60;;;15.40;91.00;;;;;;5038356;28;20026;-72
2022/03/26 12:31:24;;;;;;;16.02;8.70;;;15.40;91.10;;;;;;5038276;28;20452;-73
2022/03/26 12:33:53;;;;;;;16.10;9.07;;;15.50;90.90;;;;;;5037708;28;20025;-73
2022/03/26 12:36:22;;;;;;;18.88;9.93;;;15.50;91.60;;;;;;5016784;28;20339;-73
2022/03/26 12:38:52;;;;;;;18.30;8.88;;;15.60;91.70;;;;;;5017951;28;20026;-73
2022/03/26 12:41:20;;;;;;;19.60;9.55;;;15.70;91.00;;;;;;5016828;28;20022;-72
2022/03/26 12:43:58;;;;;;;17.95;9.02;;;15.70;90.60;;;;;;5017899;28;20046;-72
2022/03/26 12:46:37;;;;;;;15.20;9.35;;;15.80;91.30;;;;;;5016709;28;20071;-72
2022/03/26 12:49:17;;;;;;;16.45;9.18;;;15.80;90.30;;;;;;5017916;28;20021;-72
2022/03/26 12:51:49;;;;;;;17.80;9.38;;;15.90;90.40;;;;;;5017699;28;20028;-72
2022/03/26 12:54:17;;;;;;;20.73;9.95;;;16.00;90.70;;;;;;5017728;28;20025;-71
2022/03/26 12:56:45;;;;;;;16.70;9.85;;;16.20;90.90;;;;;;5018289;28;20267;-73